sensor_id;sensor_type;location;lat;lon;timestamp;pressure;altitude;pressure_sealevel;temperature;humidity
50933;BME280;36921;49.006;9.292;2023-06-22T00:02:17;98778.72;;;20.68;100.00
50933;BME280;36921;49.006;9.292;2023-06-22T00:04:42;98780.09;;;20.66;100.00
50933;BME280;36921;49.006;9.292;2023-06-22T00:07:08;98768.81;;;20.62;100.00
50933;BME280;36921;49.006;9.292;2023-06-22T00:09:33;98755.56;;;20.54;100.00
50933;BME280;36921;49.006;9.292;2023-06-22T00:11:59;98741.78;;;20.44;100.00
50933;BME280;36921;49.006;9.292;2023-06-22T00:14:24;98761.56;;;20.46;100.00
50933;BME280;36921;49.006;9.292;2023-06-22T00:16:49;98761.28;;;20.42;100.00
50933;BME280;36921;49.006;9.292;2023-06-22T00:19:18;98770.09;;;20.44;100.00
50933;BME280;36921;49.006;9.292;2023-06-22T00:21:44;98774.75;;;20.39;100.00
50933;BME280;36921;49.006;9.292;2023-06-22T00:24:12;98769.16;;;20.18;100.00
50933;BME280;36921;49.006;9.292;2023-06-22T00:26:37;98761.06;;;20.01;100.00
50933;BME280;36921;49.006;9.292;2023-06-22T00:29:02;98783.06;;;20.06;100.00
50933;BME280;36921;49.006;9.292;2023-06-22T00:31:27;98763.50;;;19.92;100.00
50933;BME280;36921;49.006;9.292;2023-06-22T00:33:53;98731.53;;;19.71;100.00
50933;BME280;36921;49.006;9.292;2023-06-22T00:36:18;98765.41;;;19.87;100.00
50933;BME280;36921;49.006;9.292;2023-06-22T00:38:44;98783.22;;;19.84;100.00
50933;BME280;36921;49.006;9.292;2023-06-22T00:41:09;98771.06;;;19.75;100.00
50933;BME280;36921;49.006;9.292;2023-06-22T00:43:35;98774.88;;;19.69;100.00
50933;BME280;36921;49.006;9.292;2023-06-22T00:46:00;98784.75;;;19.70;100.00
50933;BME280;36921;49.006;9.292;2023-06-22T00:48:25;98778.66;;;19.63;100.00
50933;BME280;36921;49.006;9.292;2023-06-22T00:50:51;98784.88;;;19.53;100.00
50933;BME280;36921;49.006;9.292;2023-06-22T00:53:19;98767.44;;;19.32;100.00
50933;BME280;36921;49.006;9.292;2023-06-22T00:55:44;98812.31;;;19.53;100.00
50933;BME280;36921;49.006;9.292;2023-06-22T00:58:12;98798.78;;;19.41;100.00
50933;BME280;36921;49.006;9.292;2023-06-22T01:00:41;98812.75;;;19.40;100.00
50933;BME280;36921;49.006;9.292;2023-06-22T01:03:07;98823.50;;;19.41;100.00
50933;BME280;36921;49.006;9.292;2023-06-22T01:05:35;98857.59;;;19.51;100.00
50933;BME280;36921;49.006;9.292;2023-06-22T01:08:26;98877.84;;;19.44;100.00
50933;BME280;36921;49.006;9.292;2023-06-22T01:13:46;98923.50;;;19.29;100.00
50933;BME280;36921;49.006;9.292;2023-06-22T01:16:21;98936.00;;;19.19;100.00
50933;BME280;36921;49.006;9.292;2023-06-22T01:18:51;98912.00;;;19.10;100.00
50933;BME280;36921;49.006;9.292;2023-06-22T01:21:19;98899.56;;;19.02;100.00
50933;BME280;36921;49.006;9.292;2023-06-22T01:29:00;98893.59;;;19.05;100.00
50933;BME280;36921;49.006;9.292;2023-06-22T01:31:28;98883.19;;;19.07;100.00
50933;BME280;36921;49.006;9.292;2023-06-22T01:34:05;98892.03;;;19.14;100.00
50933;BME280;36921;49.006;9.292;2023-06-22T01:36:32;98881.19;;;18.97;100.00
50933;BME280;36921;49.006;9.292;2023-06-22T01:38:58;98882.19;;;18.91;100.00
50933;BME280;36921;49.006;9.292;2023-06-22T01:41:28;98875.28;;;18.89;100.00
50933;BME280;36921;49.006;9.292;2023-06-22T01:43:55;98866.13;;;18.78;100.00
50933;BME280;36921;49.006;9.292;2023-06-22T01:46:22;98852.25;;;18.68;100.00
50933;BME280;36921;49.006;9.292;2023-06-22T01:48:48;98858.84;;;18.67;100.00
50933;BME280;36921;49.006;9.292;2023-06-22T01:51:14;98850.59;;;18.67;100.00
50933;BME280;36921;49.006;9.292;2023-06-22T01:53:40;98837.59;;;18.57;100.00
50933;BME280;36921;49.006;9.292;2023-06-22T01:56:06;98860.22;;;18.69;100.00
50933;BME280;36921;49.006;9.292;2023-06-22T01:58:32;98863.41;;;18.61;100.00
50933;BME280;36921;49.006;9.292;2023-06-22T02:01:20;98874.44;;;18.66;100.00
50933;BME280;36921;49.006;9.292;2023-06-22T02:03:53;98866.16;;;18.61;100.00
50933;BME280;36921;49.006;9.292;2023-06-22T02:06:31;98862.53;;;18.55;100.00
50933;BME280;36921;49.006;9.292;2023-06-22T02:09:02;98866.25;;;18.49;100.00
50933;BME280;36921;49.006;9.292;2023-06-22T02:11:28;98872.19;;;18.41;100.00
50933;BME280;36921;49.006;9.292;2023-06-22T02:13:57;98873.53;;;18.38;100.00
50933;BME280;36921;49.006;9.292;2023-06-22T02:16:22;98869.88;;;18.33;100.00
50933;BME280;36921;49.006;9.292;2023-06-22T02:18:49;98897.50;;;18.48;100.00
50933;BME280;36921;49.006;9.292;2023-06-22T02:21:18;98855.38;;;18.32;100.00
50933;BME280;36921;49.006;9.292;2023-06-22T02:23:44;98863.72;;;18.43;100.00
50933;BME280;36921;49.006;9.292;2023-06-22T02:26:09;98866.84;;;18.51;100.00
50933;BME280;36921;49.006;9.292;2023-06-22T02:28:35;98863.72;;;18.65;100.00
50933;BME280;36921;49.006;9.292;2023-06-22T02:31:00;98874.44;;;18.66;100.00
50933;BME280;36921;49.006;9.292;2023-06-22T02:33:25;98862.59;;;18.60;100.00
50933;BME280;36921;49.006;9.292;2023-06-22T02:35:50;98843.53;;;18.49;100.00
50933;BME280;36921;49.006;9.292;2023-06-22T02:38:16;98852.09;;;18.52;100.00
50933;BME280;36921;49.006;9.292;2023-06-22T02:40:42;98855.97;;;18.56;100.00
50933;BME280;36921;49.006;9.292;2023-06-22T02:43:07;98860.84;;;18.54;100.00
50933;BME280;36921;49.006;9.292;2023-06-22T02:45:33;98842.81;;;18.36;100.00
50933;BME280;36921;49.006;9.292;2023-06-22T02:47:58;98839.75;;;18.33;100.00
50933;BME280;36921;49.006;9.292;2023-06-22T02:50:24;98841.84;;;18.26;100.00
50933;BME280;36921;49.006;9.292;2023-06-22T02:52:49;98859.94;;;18.27;100.00
50933;BME280;36921;49.006;9.292;2023-06-22T02:55:14;98848.91;;;18.22;100.00
50933;BME280;36921;49.006;9.292;2023-06-22T02:57:40;98851.72;;;18.27;100.00
50933;BME280;36921;49.006;9.292;2023-06-22T03:00:09;98839.28;;;18.19;100.00
50933;BME280;36921;49.006;9.292;2023-06-22T03:02:47;98843.16;;;18.23;100.00
50933;BME280;36921;49.006;9.292;2023-06-22T03:05:14;98851.16;;;18.25;100.00
50933;BME280;36921;49.006;9.292;2023-06-22T03:07:44;98856.69;;;18.30;100.00
50933;BME280;36921;49.006;9.292;2023-06-22T03:10:10;98837.38;;;18.20;100.00
50933;BME280;36921;49.006;9.292;2023-06-22T03:12:39;98824.94;;;18.12;100.00
50933;BME280;36921;49.006;9.292;2023-06-22T03:15:05;98843.75;;;18.25;100.00
50933;BME280;36921;49.006;9.292;2023-06-22T03:17:31;98839.88;;;18.21;100.00
50933;BME280;36921;49.006;9.292;2023-06-22T03:19:56;98826.03;;;18.11;100.00
50933;BME280;36921;49.006;9.292;2023-06-22T03:22:21;98829.09;;;18.14;100.00
50933;BME280;36921;49.006;9.292;2023-06-22T03:24:47;98795.94;;;17.94;100.00
50933;BME280;36921;49.006;9.292;2023-06-22T03:27:12;98828.59;;;18.17;100.00
50933;BME280;36921;49.006;9.292;2023-06-22T03:29:38;98810.75;;;18.15;100.00
50933;BME280;36921;49.006;9.292;2023-06-22T03:32:03;98816.63;;;18.24;100.00
50933;BME280;36921;49.006;9.292;2023-06-22T03:34:30;98809.03;;;18.31;100.00
50933;BME280;36921;49.006;9.292;2023-06-22T03:36:59;98804.41;;;18.31;100.00
50933;BME280;36921;49.006;9.292;2023-06-22T03:39:24;98824.72;;;18.35;100.00
50933;BME280;36921;49.006;9.292;2023-06-22T03:41:50;98821.41;;;18.33;100.00
50933;BME280;36921;49.006;9.292;2023-06-22T03:44:15;98813.13;;;18.28;100.00
50933;BME280;36921;49.006;9.292;2023-06-22T03:46:40;98809.94;;;18.36;100.00
50933;BME280;36921;49.006;9.292;2023-06-22T03:49:06;98809.56;;;18.28;100.00
50933;BME280;36921;49.006;9.292;2023-06-22T03:51:32;98814.59;;;18.36;100.00
50933;BME280;36921;49.006;9.292;2023-06-22T03:53:57;98815.81;;;18.45;100.00
50933;BME280;36921;49.006;9.292;2023-06-22T03:56:23;98827.47;;;18.57;100.00
50933;BME280;36921;49.006;9.292;2023-06-22T03:58:48;98815.53;;;18.47;100.00
50933;BME280;36921;49.006;9.292;2023-06-22T04:01:13;98797.16;;;18.42;100.00
50933;BME280;36921;49.006;9.292;2023-06-22T04:03:39;98818.63;;;18.50;100.00
50933;BME280;36921;49.006;9.292;2023-06-22T04:06:04;98797.28;;;18.52;100.00
50933;BME280;36921;49.006;9.292;2023-06-22T04:08:30;98803.84;;;18.73;100.00
50933;BME280;36921;49.006;9.292;2023-06-22T04:10:55;98788.56;;;18.77;100.00
50933;BME280;36921;49.006;9.292;2023-06-22T04:13:20;98795.34;;;18.97;100.00
50933;BME280;36921;49.006;9.292;2023-06-22T04:15:46;98764.03;;;18.93;100.00
50933;BME280;36921;49.006;9.292;2023-06-22T04:18:11;98762.03;;;19.10;100.00
50933;BME280;36921;49.006;9.292;2023-06-22T04:20:36;98753.03;;;19.20;100.00
50933;BME280;36921;49.006;9.292;2023-06-22T04:23:02;98766.69;;;19.42;100.00
50933;BME280;36921;49.006;9.292;2023-06-22T04:25:27;98748.97;;;19.55;100.00
50933;BME280;36921;49.006;9.292;2023-06-22T04:27:52;98763.41;;;19.77;100.00
50933;BME280;36921;49.006;9.292;2023-06-22T04:30:17;98754.19;;;19.99;100.00
50933;BME280;36921;49.006;9.292;2023-06-22T04:32:44;98750.47;;;20.15;100.00
50933;BME280;36921;49.006;9.292;2023-06-22T04:35:10;98740.91;;;20.33;100.00
50933;BME280;36921;49.006;9.292;2023-06-22T04:37:35;98741.78;;;20.44;100.00
50933;BME280;36921;49.006;9.292;2023-06-22T04:40:01;98732.50;;;20.60;100.00
50933;BME280;36921;49.006;9.292;2023-06-22T04:42:26;98728.97;;;20.70;100.00
50933;BME280;36921;49.006;9.292;2023-06-22T04:44:52;98724.34;;;20.86;100.00
50933;BME280;36921;49.006;9.292;2023-06-22T04:47:17;98716.38;;;21.05;100.00
50933;BME280;36921;49.006;9.292;2023-06-22T04:49:43;98713.63;;;21.20;100.00
50933;BME280;36921;49.006;9.292;2023-06-22T04:52:10;98719.41;;;21.34;100.00
50933;BME280;36921;49.006;9.292;2023-06-22T04:54:36;98717.22;;;21.46;100.00
50933;BME280;36921;49.006;9.292;2023-06-22T04:57:04;98718.31;;;21.50;100.00
50933;BME280;36921;49.006;9.292;2023-06-22T04:59:31;98713.91;;;21.59;100.00
50933;BME280;36921;49.006;9.292;2023-06-22T05:01:57;98716.09;;;21.73;100.00
50933;BME280;36921;49.006;9.292;2023-06-22T05:04:23;98709.44;;;21.89;100.00
50933;BME280;36921;49.006;9.292;2023-06-22T05:06:50;98705.81;;;22.04;100.00
50933;BME280;36921;49.006;9.292;2023-06-22T05:09:15;98690.66;;;22.06;100.00
50933;BME280;36921;49.006;9.292;2023-06-22T05:11:42;98686.13;;;22.36;100.00
50933;BME280;36921;49.006;9.292;2023-06-22T05:14:07;98688.44;;;22.63;100.00
50933;BME280;36921;49.006;9.292;2023-06-22T05:16:33;98701.00;;;22.90;100.00
50933;BME280;36921;49.006;9.292;2023-06-22T05:18:58;98698.34;;;23.14;100.00
50933;BME280;36921;49.006;9.292;2023-06-22T05:21:25;98692.06;;;23.37;100.00
50933;BME280;36921;49.006;9.292;2023-06-22T05:23:52;98683.66;;;23.53;100.00
50933;BME280;36921;49.006;9.292;2023-06-22T05:26:18;98675.09;;;23.78;100.00
50933;BME280;36921;49.006;9.292;2023-06-22T05:28:44;98678.34;;;23.86;100.00
50933;BME280;36921;49.006;9.292;2023-06-22T05:31:14;98682.38;;;23.69;100.00
50933;BME280;36921;49.006;9.292;2023-06-22T05:33:41;98681.66;;;23.88;100.00
50933;BME280;36921;49.006;9.292;2023-06-22T05:36:06;98666.00;;;23.49;100.00
50933;BME280;36921;49.006;9.292;2023-06-22T05:38:32;98663.88;;;23.40;100.00
50933;BME280;36921;49.006;9.292;2023-06-22T05:40:57;98679.59;;;23.69;100.00
50933;BME280;36921;49.006;9.292;2023-06-22T05:43:22;98676.59;;;23.95;100.00
50933;BME280;36921;49.006;9.292;2023-06-22T05:45:48;98662.16;;;24.22;100.00
50933;BME280;36921;49.006;9.292;2023-06-22T05:48:13;98659.94;;;24.43;100.00
50933;BME280;36921;49.006;9.292;2023-06-22T05:50:38;98646.88;;;24.67;100.00
50933;BME280;36921;49.006;9.292;2023-06-22T05:53:04;98657.78;;;24.78;100.00
50933;BME280;36921;49.006;9.292;2023-06-22T05:55:29;98660.19;;;24.84;100.00
50933;BME280;36921;49.006;9.292;2023-06-22T05:57:54;98651.47;;;24.58;100.00
50933;BME280;36921;49.006;9.292;2023-06-22T06:00:20;98655.94;;;24.54;100.00
50933;BME280;36921;49.006;9.292;2023-06-22T06:02:47;98661.56;;;24.25;100.00
50933;BME280;36921;49.006;9.292;2023-06-22T06:05:14;98664.03;;;24.26;100.00
50933;BME280;36921;49.006;9.292;2023-06-22T06:07:43;98666.41;;;24.33;100.00
50933;BME280;36921;49.006;9.292;2023-06-22T06:10:09;98654.47;;;24.19;100.00
50933;BME280;36921;49.006;9.292;2023-06-22T06:12:34;98663.78;;;24.23;100.00
50933;BME280;36921;49.006;9.292;2023-06-22T06:14:59;98651.38;;;24.20;100.00
50933;BME280;36921;49.006;9.292;2023-06-22T06:17:25;98664.91;;;24.65;100.00
50933;BME280;36921;49.006;9.292;2023-06-22T06:19:50;98664.34;;;25.01;100.00
50933;BME280;36921;49.006;9.292;2023-06-22T06:22:15;98659.25;;;25.08;100.00
50933;BME280;36921;49.006;9.292;2023-06-22T06:24:40;98665.31;;;25.29;100.00
50933;BME280;36921;49.006;9.292;2023-06-22T06:27:06;98663.50;;;25.52;100.00
50933;BME280;36921;49.006;9.292;2023-06-22T06:29:32;98649.69;;;25.93;100.00
50933;BME280;36921;49.006;9.292;2023-06-22T06:31:57;98656.25;;;26.39;100.00
50933;BME280;36921;49.006;9.292;2023-06-22T06:34:23;98649.59;;;26.76;100.00
50933;BME280;36921;49.006;9.292;2023-06-22T06:36:48;98648.53;;;26.36;100.00
50933;BME280;36921;49.006;9.292;2023-06-22T06:39:13;98652.28;;;26.67;100.00
50933;BME280;36921;49.006;9.292;2023-06-22T06:41:39;98627.69;;;26.75;100.00
50933;BME280;36921;49.006;9.292;2023-06-22T06:44:04;98645.59;;;27.14;100.00
50933;BME280;36921;49.006;9.292;2023-06-22T06:46:29;98647.19;;;27.06;100.00
50933;BME280;36921;49.006;9.292;2023-06-22T06:48:55;98648.16;;;27.24;100.00
50933;BME280;36921;49.006;9.292;2023-06-22T06:51:20;98657.31;;;27.56;100.00
50933;BME280;36921;49.006;9.292;2023-06-22T06:53:52;98665.09;;;27.99;100.00
50933;BME280;36921;49.006;9.292;2023-06-22T06:56:17;98654.94;;;29.03;100.00
50933;BME280;36921;49.006;9.292;2023-06-22T06:58:43;98664.00;;;30.92;100.00
50933;BME280;36921;49.006;9.292;2023-06-22T07:01:11;98656.50;;;32.45;95.25
50933;BME280;36921;49.006;9.292;2023-06-22T07:03:37;98654.19;;;33.72;79.09
50933;BME280;36921;49.006;9.292;2023-06-22T07:06:02;98663.38;;;35.07;70.52
50933;BME280;36921;49.006;9.292;2023-06-22T07:08:28;98650.84;;;35.43;66.43
50933;BME280;36921;49.006;9.292;2023-06-22T07:10:53;98652.75;;;36.28;64.06
50933;BME280;36921;49.006;9.292;2023-06-22T07:13:19;98650.69;;;36.02;60.54
50933;BME280;36921;49.006;9.292;2023-06-22T07:15:44;98650.09;;;35.46;61.71
50933;BME280;36921;49.006;9.292;2023-06-22T07:18:10;98645.47;;;36.00;60.65
50933;BME280;36921;49.006;9.292;2023-06-22T07:20:35;98628.91;;;36.78;57.50
50933;BME280;36921;49.006;9.292;2023-06-22T07:23:01;98619.44;;;37.61;55.17
50933;BME280;36921;49.006;9.292;2023-06-22T07:25:26;98620.59;;;37.19;56.22
50933;BME280;36921;49.006;9.292;2023-06-22T07:28:01;98624.06;;;37.43;54.26
50933;BME280;36921;49.006;9.292;2023-06-22T07:30:27;98616.97;;;37.60;52.94
50933;BME280;36921;49.006;9.292;2023-06-22T07:32:53;98606.44;;;36.82;53.64
50933;BME280;36921;49.006;9.292;2023-06-22T07:35:18;98591.75;;;35.89;53.31
50933;BME280;36921;49.006;9.292;2023-06-22T07:37:44;98590.44;;;36.33;54.21
50933;BME280;36921;49.006;9.292;2023-06-22T07:40:10;98594.22;;;36.44;53.90
50933;BME280;36921;49.006;9.292;2023-06-22T07:42:36;98591.00;;;37.43;51.08
50933;BME280;36921;49.006;9.292;2023-06-22T07:45:03;98586.22;;;37.92;50.12
50933;BME280;36921;49.006;9.292;2023-06-22T07:47:29;98581.97;;;38.16;50.56
50933;BME280;36921;49.006;9.292;2023-06-22T07:49:55;98582.84;;;37.35;50.28
50933;BME280;36921;49.006;9.292;2023-06-22T07:52:23;98573.19;;;36.64;52.22
50933;BME280;36921;49.006;9.292;2023-06-22T07:54:48;98577.88;;;35.54;54.24
50933;BME280;36921;49.006;9.292;2023-06-22T07:57:14;98571.16;;;36.35;53.63
50933;BME280;36921;49.006;9.292;2023-06-22T07:59:39;98570.91;;;36.17;53.79
50933;BME280;36921;49.006;9.292;2023-06-22T08:02:05;98571.19;;;36.08;54.63
50933;BME280;36921;49.006;9.292;2023-06-22T08:04:30;98563.22;;;36.44;53.15
50933;BME280;36921;49.006;9.292;2023-06-22T08:06:57;98565.53;;;37.81;50.63
50933;BME280;36921;49.006;9.292;2023-06-22T08:09:22;98569.81;;;38.12;49.74
50933;BME280;36921;49.006;9.292;2023-06-22T08:11:48;98577.63;;;39.24;47.65
50933;BME280;36921;49.006;9.292;2023-06-22T08:14:14;98573.59;;;40.40;44.57
50933;BME280;36921;49.006;9.292;2023-06-22T08:16:41;98574.47;;;39.72;45.41
50933;BME280;36921;49.006;9.292;2023-06-22T08:19:06;98575.47;;;40.86;44.40
50933;BME280;36921;49.006;9.292;2023-06-22T08:21:32;98571.22;;;39.77;44.10
50933;BME280;36921;49.006;9.292;2023-06-22T08:23:57;98569.88;;;41.42;42.48
50933;BME280;36921;49.006;9.292;2023-06-22T08:26:22;98586.47;;;40.73;43.42
50933;BME280;36921;49.006;9.292;2023-06-22T08:28:48;98585.22;;;41.55;42.12
50933;BME280;36921;49.006;9.292;2023-06-22T08:31:14;98596.56;;;42.49;39.29
50933;BME280;36921;49.006;9.292;2023-06-22T08:33:39;98596.28;;;42.74;38.98
50933;BME280;36921;49.006;9.292;2023-06-22T08:36:05;98597.13;;;40.01;42.71
50933;BME280;36921;49.006;9.292;2023-06-22T08:38:31;98593.84;;;39.45;44.07
50933;BME280;36921;49.006;9.292;2023-06-22T08:40:57;98604.25;;;39.01;44.06
50933;BME280;36921;49.006;9.292;2023-06-22T08:43:22;98592.38;;;38.71;44.95
50933;BME280;36921;49.006;9.292;2023-06-22T08:45:48;98583.03;;;36.21;49.60
50933;BME280;36921;49.006;9.292;2023-06-22T08:48:13;98588.66;;;34.86;53.30
50933;BME280;36921;49.006;9.292;2023-06-22T08:50:39;98586.34;;;34.92;53.58
50933;BME280;36921;49.006;9.292;2023-06-22T08:53:06;98576.75;;;34.74;55.64
50933;BME280;36921;49.006;9.292;2023-06-22T08:55:31;98576.50;;;35.02;55.87
50933;BME280;36921;49.006;9.292;2023-06-22T08:57:57;98563.84;;;34.92;55.92
50933;BME280;36921;49.006;9.292;2023-06-22T09:00:22;98574.22;;;34.14;58.99
50933;BME280;36921;49.006;9.292;2023-06-22T09:02:48;98583.72;;;33.46;59.87
50933;BME280;36921;49.006;9.292;2023-06-22T09:05:14;98589.00;;;33.03;62.47
50933;BME280;36921;49.006;9.292;2023-06-22T09:07:39;98586.41;;;32.17;67.23
50933;BME280;36921;49.006;9.292;2023-06-22T09:10:06;98585.47;;;31.64;69.64
50933;BME280;36921;49.006;9.292;2023-06-22T09:12:32;98589.78;;;32.47;72.18
50933;BME280;36921;49.006;9.292;2023-06-22T09:14:59;98611.06;;;33.49;69.42
50933;BME280;36921;49.006;9.292;2023-06-22T09:17:25;98615.34;;;35.16;63.53
50933;BME280;36921;49.006;9.292;2023-06-22T09:19:51;98617.94;;;35.05;60.22
50933;BME280;36921;49.006;9.292;2023-06-22T09:22:16;98626.47;;;37.82;54.33
50933;BME280;36921;49.006;9.292;2023-06-22T09:24:41;98634.75;;;40.08;49.59
50933;BME280;36921;49.006;9.292;2023-06-22T09:27:07;98618.13;;;40.53;46.44
50933;BME280;36921;49.006;9.292;2023-06-22T09:29:32;98593.28;;;43.73;43.70
50933;BME280;36921;49.006;9.292;2023-06-22T09:31:59;98584.59;;;46.12;39.01
50933;BME280;36921;49.006;9.292;2023-06-22T09:34:25;98596.03;;;46.12;36.73
50933;BME280;36921;49.006;9.292;2023-06-22T09:36:51;98593.63;;;44.26;39.42
50933;BME280;36921;49.006;9.292;2023-06-22T09:39:17;98579.41;;;41.73;41.71
50933;BME280;36921;49.006;9.292;2023-06-22T09:41:43;98575.97;;;39.09;46.56
50933;BME280;36921;49.006;9.292;2023-06-22T09:44:08;98550.59;;;39.87;47.41
50933;BME280;36921;49.006;9.292;2023-06-22T09:46:34;98556.63;;;41.76;43.37
50933;BME280;36921;49.006;9.292;2023-06-22T09:48:59;98540.72;;;42.96;41.72
50933;BME280;36921;49.006;9.292;2023-06-22T09:51:24;98529.84;;;44.16;38.23
50933;BME280;36921;49.006;9.292;2023-06-22T09:53:50;98524.47;;;44.98;37.16
50933;BME280;36921;49.006;9.292;2023-06-22T09:56:16;98538.56;;;46.07;36.14
50933;BME280;36921;49.006;9.292;2023-06-22T09:58:43;98527.41;;;45.47;35.96
50933;BME280;36921;49.006;9.292;2023-06-22T10:01:09;98519.81;;;46.77;35.08
50933;BME280;36921;49.006;9.292;2023-06-22T10:03:35;98514.09;;;46.35;36.00
50933;BME280;36921;49.006;9.292;2023-06-22T10:06:01;98517.44;;;44.46;36.22
50933;BME280;36921;49.006;9.292;2023-06-22T10:08:26;98516.00;;;42.24;37.95
50933;BME280;36921;49.006;9.292;2023-06-22T10:10:52;98493.50;;;41.58;39.92
50933;BME280;36921;49.006;9.292;2023-06-22T10:13:17;98505.66;;;40.00;40.99
50933;BME280;36921;49.006;9.292;2023-06-22T10:15:44;98501.88;;;41.27;41.38
50933;BME280;36921;49.006;9.292;2023-06-22T10:18:15;98502.41;;;41.64;41.99
50933;BME280;36921;49.006;9.292;2023-06-22T10:20:41;98493.56;;;44.56;38.30
50933;BME280;36921;49.006;9.292;2023-06-22T10:23:08;98505.59;;;43.33;36.98
50933;BME280;36921;49.006;9.292;2023-06-22T10:25:33;98505.75;;;41.48;40.17
50933;BME280;36921;49.006;9.292;2023-06-22T10:27:59;98507.91;;;40.59;41.98
50933;BME280;36921;49.006;9.292;2023-06-22T10:30:24;98515.38;;;39.63;44.69
50933;BME280;36921;49.006;9.292;2023-06-22T10:32:50;98504.47;;;39.73;46.56
50933;BME280;36921;49.006;9.292;2023-06-22T10:35:15;98489.13;;;39.34;44.71
50933;BME280;36921;49.006;9.292;2023-06-22T10:37:44;98485.22;;;40.59;44.60
50933;BME280;36921;49.006;9.292;2023-06-22T10:40:12;98481.81;;;39.91;42.43
50933;BME280;36921;49.006;9.292;2023-06-22T10:42:38;98480.75;;;41.28;41.50
50933;BME280;36921;49.006;9.292;2023-06-22T10:45:04;98469.97;;;41.99;41.11
50933;BME280;36921;49.006;9.292;2023-06-22T10:47:29;98466.97;;;40.67;40.06
50933;BME280;36921;49.006;9.292;2023-06-22T10:49:55;98465.22;;;39.53;41.77
50933;BME280;36921;49.006;9.292;2023-06-22T10:52:20;98463.59;;;38.91;42.83
50933;BME280;36921;49.006;9.292;2023-06-22T10:54:46;98454.22;;;37.26;45.39
50933;BME280;36921;49.006;9.292;2023-06-22T10:57:12;98454.78;;;38.05;44.90
50933;BME280;36921;49.006;9.292;2023-06-22T10:59:37;98445.00;;;39.01;42.74
50933;BME280;36921;49.006;9.292;2023-06-22T11:02:03;98435.19;;;38.45;42.97
50933;BME280;36921;49.006;9.292;2023-06-22T11:04:28;98440.97;;;37.93;44.86
50933;BME280;36921;49.006;9.292;2023-06-22T11:06:53;98435.63;;;37.74;45.64
50933;BME280;36921;49.006;9.292;2023-06-22T11:09:19;98441.69;;;37.79;45.75
50933;BME280;36921;49.006;9.292;2023-06-22T11:11:51;98435.28;;;37.31;45.27
50933;BME280;36921;49.006;9.292;2023-06-22T11:14:20;98431.28;;;37.35;47.13
50933;BME280;36921;49.006;9.292;2023-06-22T11:16:45;98442.63;;;37.42;46.44
50933;BME280;36921;49.006;9.292;2023-06-22T11:19:11;98439.63;;;37.69;46.05
50933;BME280;36921;49.006;9.292;2023-06-22T11:21:37;98439.91;;;38.19;45.14
50933;BME280;36921;49.006;9.292;2023-06-22T11:24:03;98428.34;;;38.64;46.10
50933;BME280;36921;49.006;9.292;2023-06-22T11:26:28;98427.94;;;38.54;44.49
50933;BME280;36921;49.006;9.292;2023-06-22T11:28:54;98422.44;;;37.37;47.29
50933;BME280;36921;49.006;9.292;2023-06-22T11:31:19;98432.44;;;37.27;49.41
50933;BME280;36921;49.006;9.292;2023-06-22T11:33:45;98423.47;;;36.73;46.75
50933;BME280;36921;49.006;9.292;2023-06-22T11:36:14;98423.28;;;36.96;46.86
50933;BME280;36921;49.006;9.292;2023-06-22T11:38:39;98419.56;;;36.85;49.62
50933;BME280;36921;49.006;9.292;2023-06-22T11:41:06;98416.38;;;36.87;48.83
50933;BME280;36921;49.006;9.292;2023-06-22T11:43:31;98419.03;;;36.35;49.39
50933;BME280;36921;49.006;9.292;2023-06-22T11:45:57;98410.25;;;35.80;48.42
50933;BME280;36921;49.006;9.292;2023-06-22T11:48:24;98412.84;;;35.12;51.60
50933;BME280;36921;49.006;9.292;2023-06-22T11:50:50;98410.66;;;35.05;51.13
50933;BME280;36921;49.006;9.292;2023-06-22T11:53:15;98410.47;;;35.41;51.31
50933;BME280;36921;49.006;9.292;2023-06-22T11:55:44;98410.31;;;35.56;51.22
50933;BME280;36921;49.006;9.292;2023-06-22T11:58:10;98413.66;;;35.66;51.64
50933;BME280;36921;49.006;9.292;2023-06-22T12:00:36;98417.63;;;35.91;49.76
50933;BME280;36921;49.006;9.292;2023-06-22T12:03:02;98416.00;;;36.17;50.45
50933;BME280;36921;49.006;9.292;2023-06-22T12:05:28;98410.72;;;36.15;49.90
50933;BME280;36921;49.006;9.292;2023-06-22T12:07:53;98408.53;;;36.02;51.22
50933;BME280;36921;49.006;9.292;2023-06-22T12:10:20;98407.97;;;35.59;51.23
50933;BME280;36921;49.006;9.292;2023-06-22T12:12:45;98412.31;;;35.56;52.12
50933;BME280;36921;49.006;9.292;2023-06-22T12:15:11;98414.03;;;35.11;52.26
50933;BME280;36921;49.006;9.292;2023-06-22T12:17:36;98418.25;;;35.01;53.15
50933;BME280;36921;49.006;9.292;2023-06-22T12:20:02;98423.88;;;34.78;56.06
50933;BME280;36921;49.006;9.292;2023-06-22T12:22:34;98433.75;;;34.49;57.48
50933;BME280;36921;49.006;9.292;2023-06-22T12:25:00;98446.16;;;34.29;58.83
50933;BME280;36921;49.006;9.292;2023-06-22T12:27:27;98454.72;;;34.16;60.90
50933;BME280;36921;49.006;9.292;2023-06-22T12:29:52;98444.16;;;34.29;60.72
50933;BME280;36921;49.006;9.292;2023-06-22T12:32:17;98443.59;;;34.20;64.78
50933;BME280;36921;49.006;9.292;2023-06-22T12:34:44;98435.75;;;34.29;67.17
50933;BME280;36921;49.006;9.292;2023-06-22T12:37:10;98432.13;;;34.48;69.75
50933;BME280;36921;49.006;9.292;2023-06-22T12:39:35;98422.06;;;34.47;72.01
50933;BME280;36921;49.006;9.292;2023-06-22T12:42:01;98433.91;;;34.37;78.76
50933;BME280;36921;49.006;9.292;2023-06-22T12:44:26;98427.03;;;34.15;78.18
50933;BME280;36921;49.006;9.292;2023-06-22T12:46:51;98429.75;;;34.11;74.46
50933;BME280;36921;49.006;9.292;2023-06-22T12:49:17;98425.50;;;33.82;85.66
50933;BME280;36921;49.006;9.292;2023-06-22T12:51:43;98417.47;;;34.00;85.99
50933;BME280;36921;49.006;9.292;2023-06-22T12:54:09;98418.00;;;33.86;93.27
50933;BME280;36921;49.006;9.292;2023-06-22T12:56:35;98420.78;;;33.86;100.00
50933;BME280;36921;49.006;9.292;2023-06-22T12:59:00;98414.28;;;33.82;100.00